Terminal Aerodrome Forecast
Issued by NWS

Home | Current Version | Previous Version | Graphics & Text | Print | Product List | Glossary On
Versions: 1 2 3 4 5 6 7 8 9 10 11 12 13 14 15 16 17 18 19
235
FTUS43 KBIS 232328
TAFDIK
TAF
KDIK 232328Z 2400/2424 08006KT P6SM FEW250
     FM240300 14007KT P6SM FEW200
     FM240700 17009KT P6SM FEW250
     FM241100 17013G19KT P6SM FEW250
     FM241500 16020G28KT P6SM FEW250=

USA.gov is the U.S. government's official web portal to all federal, state and local government web resources and services.